sensor_id;sensor_type;location;lat;lon;timestamp;P1;durP1;ratioP1;P2;durP2;ratioP2
12451;SDS011;6291;48.924;12.204;2023-04-03T00:02:05;2.40;;;2.08;;
12451;SDS011;6291;48.924;12.204;2023-04-03T00:07:08;2.33;;;2.10;;
12451;SDS011;6291;48.924;12.204;2023-04-03T00:12:14;2.53;;;1.90;;
12451;SDS011;6291;48.924;12.204;2023-04-03T00:17:19;2.60;;;2.35;;
12451;SDS011;6291;48.924;12.204;2023-04-03T00:22:22;3.27;;;2.20;;
12451;SDS011;6291;48.924;12.204;2023-04-03T00:27:28;2.60;;;2.22;;
12451;SDS011;6291;48.924;12.204;2023-04-03T00:32:33;2.67;;;2.30;;
12451;SDS011;6291;48.924;12.204;2023-04-03T00:37:36;2.40;;;2.20;;
12451;SDS011;6291;48.924;12.204;2023-04-03T00:42:40;3.13;;;2.50;;
12451;SDS011;6291;48.924;12.204;2023-04-03T00:47:47;3.70;;;2.40;;
12451;SDS011;6291;48.924;12.204;2023-04-03T00:52:50;3.90;;;2.47;;
12451;SDS011;6291;48.924;12.204;2023-04-03T00:57:54;2.72;;;2.50;;
12451;SDS011;6291;48.924;12.204;2023-04-03T01:03:00;3.22;;;2.45;;
12451;SDS011;6291;48.924;12.204;2023-04-03T01:08:04;2.40;;;2.20;;
12451;SDS011;6291;48.924;12.204;2023-04-03T01:13:17;2.72;;;2.47;;
12451;SDS011;6291;48.924;12.204;2023-04-03T01:18:28;2.30;;;2.10;;
12451;SDS011;6291;48.924;12.204;2023-04-03T01:23:36;3.03;;;2.40;;
12451;SDS011;6291;48.924;12.204;2023-04-03T01:28:47;3.67;;;2.63;;
12451;SDS011;6291;48.924;12.204;2023-04-03T01:33:52;2.83;;;2.40;;
12451;SDS011;6291;48.924;12.204;2023-04-03T01:38:57;2.92;;;2.60;;
12451;SDS011;6291;48.924;12.204;2023-04-03T01:44:03;3.75;;;2.70;;
12451;SDS011;6291;48.924;12.204;2023-04-03T01:49:08;3.97;;;2.70;;
12451;SDS011;6291;48.924;12.204;2023-04-03T01:54:12;4.20;;;2.53;;
12451;SDS011;6291;48.924;12.204;2023-04-03T01:59:16;3.80;;;2.70;;
12451;SDS011;6291;48.924;12.204;2023-04-03T02:04:22;3.60;;;2.47;;
12451;SDS011;6291;48.924;12.204;2023-04-03T02:09:26;2.92;;;2.63;;
12451;SDS011;6291;48.924;12.204;2023-04-03T02:14:29;3.22;;;2.83;;
12451;SDS011;6291;48.924;12.204;2023-04-03T02:19:35;3.55;;;3.00;;
12451;SDS011;6291;48.924;12.204;2023-04-03T02:24:38;3.60;;;3.00;;
12451;SDS011;6291;48.924;12.204;2023-04-03T02:29:42;5.93;;;3.43;;
12451;SDS011;6291;48.924;12.204;2023-04-03T02:34:48;4.45;;;3.50;;
12451;SDS011;6291;48.924;12.204;2023-04-03T02:39:51;4.20;;;3.22;;
12451;SDS011;6291;48.924;12.204;2023-04-03T02:44:55;4.18;;;3.15;;
12451;SDS011;6291;48.924;12.204;2023-04-03T02:50:02;6.73;;;4.10;;
12451;SDS011;6291;48.924;12.204;2023-04-03T02:55:07;3.60;;;3.20;;
12451;SDS011;6291;48.924;12.204;2023-04-03T03:00:11;4.40;;;3.07;;
12451;SDS011;6291;48.924;12.204;2023-04-03T03:05:17;3.50;;;3.20;;
12451;SDS011;6291;48.924;12.204;2023-04-03T03:10:21;4.40;;;2.90;;
12451;SDS011;6291;48.924;12.204;2023-04-03T03:15:25;3.40;;;2.70;;
12451;SDS011;6291;48.924;12.204;2023-04-03T03:20:29;3.45;;;2.80;;
12451;SDS011;6291;48.924;12.204;2023-04-03T03:25:33;2.97;;;2.67;;
12451;SDS011;6291;48.924;12.204;2023-04-03T03:30:41;3.38;;;3.08;;
12451;SDS011;6291;48.924;12.204;2023-04-03T03:35:46;3.88;;;2.80;;
12451;SDS011;6291;48.924;12.204;2023-04-03T03:40:50;3.50;;;2.83;;
12451;SDS011;6291;48.924;12.204;2023-04-03T03:45:55;3.60;;;2.80;;
12451;SDS011;6291;48.924;12.204;2023-04-03T03:51:01;3.42;;;2.80;;
12451;SDS011;6291;48.924;12.204;2023-04-03T03:56:09;3.42;;;2.85;;
12451;SDS011;6291;48.924;12.204;2023-04-03T04:01:15;3.65;;;2.72;;
12451;SDS011;6291;48.924;12.204;2023-04-03T04:06:23;4.20;;;2.85;;
12451;SDS011;6291;48.924;12.204;2023-04-03T04:11:30;3.55;;;2.90;;
12451;SDS011;6291;48.924;12.204;2023-04-03T04:16:36;4.40;;;2.87;;
12451;SDS011;6291;48.924;12.204;2023-04-03T04:21:46;3.03;;;2.67;;
12451;SDS011;6291;48.924;12.204;2023-04-03T04:26:50;3.43;;;2.87;;
12451;SDS011;6291;48.924;12.204;2023-04-03T04:31:55;3.22;;;2.88;;
12451;SDS011;6291;48.924;12.204;2023-04-03T04:37:00;4.80;;;3.13;;
12451;SDS011;6291;48.924;12.204;2023-04-03T04:42:04;3.85;;;3.00;;
12451;SDS011;6291;48.924;12.204;2023-04-03T04:47:09;4.18;;;3.05;;
12451;SDS011;6291;48.924;12.204;2023-04-03T04:52:14;5.43;;;3.63;;
12451;SDS011;6291;48.924;12.204;2023-04-03T04:57:19;8.20;;;4.93;;
12451;SDS011;6291;48.924;12.204;2023-04-03T05:02:23;7.38;;;4.72;;
12451;SDS011;6291;48.924;12.204;2023-04-03T05:07:29;10.43;;;5.90;;
12451;SDS011;6291;48.924;12.204;2023-04-03T05:12:34;10.23;;;5.68;;
12451;SDS011;6291;48.924;12.204;2023-04-03T05:17:38;9.80;;;6.27;;
12451;SDS011;6291;48.924;12.204;2023-04-03T05:22:47;10.93;;;5.60;;
12451;SDS011;6291;48.924;12.204;2023-04-03T05:27:51;6.80;;;4.30;;
12451;SDS011;6291;48.924;12.204;2023-04-03T05:32:56;5.57;;;3.47;;
12451;SDS011;6291;48.924;12.204;2023-04-03T05:38:10;4.10;;;3.20;;
12451;SDS011;6291;48.924;12.204;2023-04-03T05:43:14;3.80;;;3.13;;
12451;SDS011;6291;48.924;12.204;2023-04-03T05:48:18;3.00;;;2.70;;
12451;SDS011;6291;48.924;12.204;2023-04-03T05:53:24;5.85;;;3.60;;
12451;SDS011;6291;48.924;12.204;2023-04-03T05:58:33;4.67;;;3.50;;
12451;SDS011;6291;48.924;12.204;2023-04-03T06:03:37;4.47;;;3.13;;
12451;SDS011;6291;48.924;12.204;2023-04-03T06:08:45;3.40;;;2.88;;
12451;SDS011;6291;48.924;12.204;2023-04-03T06:13:48;3.97;;;2.70;;
12451;SDS011;6291;48.924;12.204;2023-04-03T06:18:52;3.58;;;2.55;;
12451;SDS011;6291;48.924;12.204;2023-04-03T06:23:59;4.03;;;2.70;;
12451;SDS011;6291;48.924;12.204;2023-04-03T06:29:03;4.38;;;3.03;;
12451;SDS011;6291;48.924;12.204;2023-04-03T06:34:06;3.87;;;2.70;;
12451;SDS011;6291;48.924;12.204;2023-04-03T06:39:12;5.63;;;2.87;;
12451;SDS011;6291;48.924;12.204;2023-04-03T06:44:18;5.18;;;3.05;;
12451;SDS011;6291;48.924;12.204;2023-04-03T06:49:21;5.40;;;2.90;;
12451;SDS011;6291;48.924;12.204;2023-04-03T06:54:26;4.40;;;2.80;;
12451;SDS011;6291;48.924;12.204;2023-04-03T06:59:29;4.20;;;3.40;;
12451;SDS011;6291;48.924;12.204;2023-04-03T07:04:33;3.73;;;2.50;;
12451;SDS011;6291;48.924;12.204;2023-04-03T07:09:37;4.73;;;2.53;;
12451;SDS011;6291;48.924;12.204;2023-04-03T07:14:42;4.33;;;2.47;;
12451;SDS011;6291;48.924;12.204;2023-04-03T07:19:46;4.65;;;2.90;;
12451;SDS011;6291;48.924;12.204;2023-04-03T07:24:50;3.63;;;2.35;;
12451;SDS011;6291;48.924;12.204;2023-04-03T07:29:54;3.33;;;2.20;;
12451;SDS011;6291;48.924;12.204;2023-04-03T07:34:58;4.15;;;2.38;;
12451;SDS011;6291;48.924;12.204;2023-04-03T07:40:05;3.45;;;2.33;;
12451;SDS011;6291;48.924;12.204;2023-04-03T07:45:10;4.55;;;2.50;;
12451;SDS011;6291;48.924;12.204;2023-04-03T07:50:13;3.13;;;2.10;;
12451;SDS011;6291;48.924;12.204;2023-04-03T07:55:19;3.13;;;2.00;;
12451;SDS011;6291;48.924;12.204;2023-04-03T08:00:22;4.10;;;2.20;;
12451;SDS011;6291;48.924;12.204;2023-04-03T08:05:26;4.47;;;2.60;;
12451;SDS011;6291;48.924;12.204;2023-04-03T08:10:30;3.97;;;2.35;;
12451;SDS011;6291;48.924;12.204;2023-04-03T08:15:34;3.60;;;2.00;;
12451;SDS011;6291;48.924;12.204;2023-04-03T08:20:38;2.80;;;1.90;;
12451;SDS011;6291;48.924;12.204;2023-04-03T08:25:44;4.60;;;2.08;;
12451;SDS011;6291;48.924;12.204;2023-04-03T08:30:47;4.33;;;2.00;;
12451;SDS011;6291;48.924;12.204;2023-04-03T08:35:50;3.33;;;1.70;;
12451;SDS011;6291;48.924;12.204;2023-04-03T08:41:00;3.33;;;1.88;;
12451;SDS011;6291;48.924;12.204;2023-04-03T08:46:08;3.65;;;1.67;;
12451;SDS011;6291;48.924;12.204;2023-04-03T08:51:17;3.20;;;1.30;;
12451;SDS011;6291;48.924;12.204;2023-04-03T08:56:24;2.60;;;1.10;;
12451;SDS011;6291;48.924;12.204;2023-04-03T09:01:29;2.50;;;1.20;;
12451;SDS011;6291;48.924;12.204;2023-04-03T09:06:37;1.90;;;1.13;;
12451;SDS011;6291;48.924;12.204;2023-04-03T09:11:47;1.65;;;0.98;;
12451;SDS011;6291;48.924;12.204;2023-04-03T09:17:00;1.23;;;0.95;;
12451;SDS011;6291;48.924;12.204;2023-04-03T09:22:12;1.70;;;0.95;;
12451;SDS011;6291;48.924;12.204;2023-04-03T09:27:21;2.97;;;1.10;;
12451;SDS011;6291;48.924;12.204;2023-04-03T09:32:26;1.80;;;1.13;;
12451;SDS011;6291;48.924;12.204;2023-04-03T09:37:34;2.60;;;1.38;;
12451;SDS011;6291;48.924;12.204;2023-04-03T09:42:44;2.25;;;1.08;;
12451;SDS011;6291;48.924;12.204;2023-04-03T09:48:06;3.85;;;1.10;;
12451;SDS011;6291;48.924;12.204;2023-04-03T09:53:25;1.77;;;0.82;;
12451;SDS011;6291;48.924;12.204;2023-04-03T09:58:32;2.22;;;0.80;;
12451;SDS011;6291;48.924;12.204;2023-04-03T10:04:02;1.40;;;0.80;;
12451;SDS011;6291;48.924;12.204;2023-04-03T10:09:15;1.77;;;0.98;;
12451;SDS011;6291;48.924;12.204;2023-04-03T10:14:23;2.40;;;0.70;;
12451;SDS011;6291;48.924;12.204;2023-04-03T10:19:34;1.88;;;0.80;;
12451;SDS011;6291;48.924;12.204;2023-04-03T10:24:44;1.70;;;0.60;;
12451;SDS011;6291;48.924;12.204;2023-04-03T10:29:57;1.13;;;0.70;;
12451;SDS011;6291;48.924;12.204;2023-04-03T10:35:08;1.85;;;0.70;;
12451;SDS011;6291;48.924;12.204;2023-04-03T10:40:22;1.13;;;0.80;;
12451;SDS011;6291;48.924;12.204;2023-04-03T10:45:41;1.23;;;0.70;;
12451;SDS011;6291;48.924;12.204;2023-04-03T10:51:05;1.10;;;0.80;;
12451;SDS011;6291;48.924;12.204;2023-04-03T10:56:15;1.70;;;0.80;;
12451;SDS011;6291;48.924;12.204;2023-04-03T11:01:26;1.58;;;0.80;;
12451;SDS011;6291;48.924;12.204;2023-04-03T11:06:36;1.20;;;0.80;;
12451;SDS011;6291;48.924;12.204;2023-04-03T11:11:43;3.30;;;1.07;;
12451;SDS011;6291;48.924;12.204;2023-04-03T11:16:52;2.58;;;0.90;;
12451;SDS011;6291;48.924;12.204;2023-04-03T11:22:06;2.30;;;1.13;;
12451;SDS011;6291;48.924;12.204;2023-04-03T11:27:17;1.15;;;0.90;;
12451;SDS011;6291;48.924;12.204;2023-04-03T11:32:41;2.10;;;1.02;;
12451;SDS011;6291;48.924;12.204;2023-04-03T11:38:03;2.13;;;0.80;;
12451;SDS011;6291;48.924;12.204;2023-04-03T11:43:17;1.30;;;1.00;;
12451;SDS011;6291;48.924;12.204;2023-04-03T11:53:54;1.60;;;1.00;;
12451;SDS011;6291;48.924;12.204;2023-04-03T11:59:45;1.90;;;0.90;;
12451;SDS011;6291;48.924;12.204;2023-04-03T12:10:28;2.30;;;1.20;;
12451;SDS011;6291;48.924;12.204;2023-04-03T12:21:03;2.33;;;1.13;;
12451;SDS011;6291;48.924;12.204;2023-04-03T12:26:19;2.20;;;0.90;;
12451;SDS011;6291;48.924;12.204;2023-04-03T12:31:25;2.57;;;1.20;;
12451;SDS011;6291;48.924;12.204;2023-04-03T12:36:45;2.00;;;1.10;;
12451;SDS011;6291;48.924;12.204;2023-04-03T12:42:00;1.93;;;1.00;;
12451;SDS011;6291;48.924;12.204;2023-04-03T12:47:22;2.07;;;1.20;;
12451;SDS011;6291;48.924;12.204;2023-04-03T12:52:39;2.00;;;1.13;;
12451;SDS011;6291;48.924;12.204;2023-04-03T12:57:46;1.47;;;1.10;;
12451;SDS011;6291;48.924;12.204;2023-04-03T13:02:50;2.97;;;1.20;;
12451;SDS011;6291;48.924;12.204;2023-04-03T13:07:56;1.40;;;1.00;;
12451;SDS011;6291;48.924;12.204;2023-04-03T13:13:07;3.20;;;1.20;;
12451;SDS011;6291;48.924;12.204;2023-04-03T13:18:22;2.28;;;1.17;;
12451;SDS011;6291;48.924;12.204;2023-04-03T13:23:32;2.03;;;1.00;;
12451;SDS011;6291;48.924;12.204;2023-04-03T13:28:38;2.15;;;1.30;;
12451;SDS011;6291;48.924;12.204;2023-04-03T13:33:43;2.45;;;1.77;;
12451;SDS011;6291;48.924;12.204;2023-04-03T13:39:05;2.42;;;1.40;;
12451;SDS011;6291;48.924;12.204;2023-04-03T13:44:26;4.63;;;2.03;;
12451;SDS011;6291;48.924;12.204;2023-04-03T13:49:34;3.15;;;2.00;;
12451;SDS011;6291;48.924;12.204;2023-04-03T13:54:39;2.40;;;1.70;;
12451;SDS011;6291;48.924;12.204;2023-04-03T13:59:43;2.20;;;1.10;;
12451;SDS011;6291;48.924;12.204;2023-04-03T14:04:49;2.78;;;1.05;;
12451;SDS011;6291;48.924;12.204;2023-04-03T14:09:59;1.53;;;1.20;;
12451;SDS011;6291;48.924;12.204;2023-04-03T14:15:03;3.08;;;1.70;;
12451;SDS011;6291;48.924;12.204;2023-04-03T14:20:27;5.87;;;2.83;;
12451;SDS011;6291;48.924;12.204;2023-04-03T14:25:32;2.50;;;1.20;;
12451;SDS011;6291;48.924;12.204;2023-04-03T14:30:36;1.87;;;1.20;;
12451;SDS011;6291;48.924;12.204;2023-04-03T14:35:40;2.35;;;1.20;;
12451;SDS011;6291;48.924;12.204;2023-04-03T14:40:45;2.80;;;1.25;;
12451;SDS011;6291;48.924;12.204;2023-04-03T14:45:48;2.20;;;0.90;;
12451;SDS011;6291;48.924;12.204;2023-04-03T14:50:53;2.10;;;1.10;;
12451;SDS011;6291;48.924;12.204;2023-04-03T14:56:11;2.05;;;1.20;;
12451;SDS011;6291;48.924;12.204;2023-04-03T15:01:16;2.10;;;1.25;;
12451;SDS011;6291;48.924;12.204;2023-04-03T15:06:20;2.10;;;1.00;;
12451;SDS011;6291;48.924;12.204;2023-04-03T15:11:25;1.85;;;1.25;;
12451;SDS011;6291;48.924;12.204;2023-04-03T15:16:29;2.37;;;1.10;;
12451;SDS011;6291;48.924;12.204;2023-04-03T15:21:32;2.00;;;1.10;;
12451;SDS011;6291;48.924;12.204;2023-04-03T15:26:37;2.83;;;1.40;;
12451;SDS011;6291;48.924;12.204;2023-04-03T15:31:41;2.92;;;1.70;;
12451;SDS011;6291;48.924;12.204;2023-04-03T15:36:44;3.15;;;1.77;;
12451;SDS011;6291;48.924;12.204;2023-04-03T15:41:49;1.67;;;1.40;;
12451;SDS011;6291;48.924;12.204;2023-04-03T15:46:53;2.92;;;1.60;;
12451;SDS011;6291;48.924;12.204;2023-04-03T15:51:56;3.80;;;2.30;;
12451;SDS011;6291;48.924;12.204;2023-04-03T15:57:01;3.78;;;1.50;;
12451;SDS011;6291;48.924;12.204;2023-04-03T16:02:05;2.30;;;1.13;;
12451;SDS011;6291;48.924;12.204;2023-04-03T16:07:11;3.63;;;1.53;;
12451;SDS011;6291;48.924;12.204;2023-04-03T16:12:16;2.33;;;1.40;;
12451;SDS011;6291;48.924;12.204;2023-04-03T16:22:24;2.15;;;1.20;;
12451;SDS011;6291;48.924;12.204;2023-04-03T16:27:30;1.37;;;1.00;;
12451;SDS011;6291;48.924;12.204;2023-04-03T16:32:34;1.75;;;1.25;;
12451;SDS011;6291;48.924;12.204;2023-04-03T16:37:38;4.22;;;1.50;;
12451;SDS011;6291;48.924;12.204;2023-04-03T18:34:33;3.65;;;2.05;;
12451;SDS011;6291;48.924;12.204;2023-04-03T23:49:59;2.30;;;1.30;;
